createdAt,value
2019-05-13T00:01:43.674Z,99522.00
2019-05-13T00:04:14.070Z,99527.00
2019-05-13T00:06:53.985Z,99528.00
2019-05-13T00:09:14.780Z,99535.00
2019-05-13T00:11:44.171Z,99535.00
2019-05-13T00:14:13.592Z,99526.00
2019-05-13T00:16:44.844Z,99521.00
2019-05-13T00:19:14.334Z,99526.00
2019-05-13T00:21:44.480Z,99530.00
2019-05-13T00:24:14.519Z,99531.00
2019-05-13T00:26:44.609Z,99531.00
2019-05-13T00:29:14.557Z,99539.00
2019-05-13T00:31:44.019Z,99535.00
2019-05-13T00:34:14.343Z,99536.00
2019-05-13T00:36:44.679Z,99545.00
2019-05-13T00:39:15.333Z,99538.00
2019-05-13T00:41:46.124Z,99539.00
2019-05-13T00:44:18.048Z,99544.00
2019-05-13T00:46:47.476Z,99542.00
2019-05-13T00:49:16.849Z,99538.00
2019-05-13T00:51:46.210Z,99539.00
2019-05-13T00:54:15.597Z,99539.00
2019-05-13T00:56:44.986Z,99522.00
2019-05-13T00:59:14.440Z,99531.00
2019-05-13T01:01:44.226Z,99522.00
2019-05-13T01:04:14.471Z,99536.00
2019-05-13T01:06:43.944Z,99536.00
2019-05-13T01:09:14.500Z,99536.00
2019-05-13T01:11:44.027Z,99526.00
2019-05-13T01:14:14.306Z,99529.00
2019-05-13T01:16:44.279Z,99528.00
2019-05-13T01:19:14.352Z,99531.00
2019-05-13T01:21:43.940Z,99533.00
2019-05-13T01:24:14.376Z,99538.00
2019-05-13T01:26:44.021Z,99526.00
2019-05-13T01:29:13.686Z,99537.00
2019-05-13T01:31:43.588Z,99528.00
2019-05-13T01:34:14.285Z,99533.00
2019-05-13T01:36:44.649Z,99544.00
2019-05-13T01:39:14.297Z,99544.00
2019-05-13T01:41:43.954Z,99529.00
2019-05-13T01:44:14.018Z,99543.00
2019-05-13T01:46:43.857Z,99525.00
2019-05-13T01:49:13.875Z,99527.00
2019-05-13T01:51:44.012Z,99526.00
2019-05-13T02:14:28.041Z,99553.00
2019-05-13T02:16:57.420Z,99550.00
2019-05-13T02:19:26.775Z,99546.00
2019-05-13T02:21:56.325Z,99549.00
2019-05-13T02:24:25.897Z,99544.00
2019-05-13T02:26:55.218Z,99563.00
2019-05-13T02:29:24.649Z,99552.00
2019-05-13T02:31:56.206Z,99541.00
2019-05-13T02:34:25.096Z,99544.00
2019-05-13T02:36:54.534Z,99538.00
2019-05-13T02:39:23.895Z,99537.00
2019-05-13T02:41:53.255Z,99547.00
2019-05-13T02:44:22.828Z,99542.00
2019-05-13T02:46:52.582Z,99551.00
2019-05-13T02:49:23.185Z,99554.00
2019-05-13T02:51:54.663Z,99566.00
2019-05-13T02:54:24.029Z,99570.00
2019-05-13T02:56:53.378Z,99576.00
2019-05-13T02:59:23.008Z,99563.00
2019-05-13T03:01:53.435Z,99575.00
2019-05-13T03:04:23.600Z,99572.00
2019-05-13T03:06:53.164Z,99564.00
2019-05-13T03:09:23.142Z,99570.00
2019-05-13T03:11:53.627Z,99565.00
2019-05-13T03:14:24.020Z,99557.00
2019-05-13T03:16:55.293Z,99550.00
2019-05-13T03:19:24.660Z,99557.00
2019-05-13T03:21:54.400Z,99566.00
2019-05-13T03:24:23.806Z,99553.00
2019-05-13T03:26:53.843Z,99577.00
2019-05-13T03:29:23.226Z,99571.00
2019-05-13T03:31:55.774Z,99575.00
2019-05-13T03:34:26.705Z,99575.00
2019-05-13T03:36:57.973Z,99581.00
2019-05-13T03:39:32.997Z,99579.00
2019-05-13T03:42:03.921Z,99585.00
2019-05-13T03:44:33.354Z,99583.00
2019-05-13T03:47:04.511Z,99591.00
2019-05-13T03:49:35.988Z,99582.00
2019-05-13T03:52:05.451Z,99586.00
2019-05-13T03:54:35.738Z,99583.00
2019-05-13T03:57:05.816Z,99588.00
2019-05-13T03:59:35.617Z,99602.00
2019-05-13T04:02:05.115Z,99604.00
2019-05-13T04:04:34.563Z,99589.00
2019-05-13T04:07:03.922Z,99585.00
2019-05-13T04:09:36.394Z,99595.00
2019-05-13T04:12:04.678Z,99600.00
2019-05-13T04:14:34.154Z,99602.00
2019-05-13T04:17:03.785Z,99608.00
2019-05-13T04:19:34.258Z,99595.00
2019-05-13T04:22:03.865Z,99609.00
2019-05-13T04:24:33.922Z,99606.00
2019-05-13T04:27:03.651Z,99601.00
2019-05-13T04:29:33.598Z,99619.00
2019-05-13T04:32:03.406Z,99611.00
2019-05-13T04:34:34.011Z,99629.00
2019-05-13T04:37:03.808Z,99623.00
2019-05-13T04:39:46.018Z,99615.00
2019-05-13T04:42:04.957Z,99610.00
2019-05-13T04:44:34.342Z,99630.00
2019-05-13T04:47:04.223Z,99628.00
2019-05-13T04:49:33.897Z,99613.00
2019-05-13T04:52:03.968Z,99622.00
2019-05-13T04:54:33.986Z,99615.00
2019-05-13T04:57:03.730Z,99625.00
2019-05-13T04:59:34.792Z,99624.00
2019-05-13T05:02:36.757Z,99629.00
2019-05-13T05:05:03.578Z,99630.00
2019-05-13T05:08:05.939Z,99633.00
2019-05-13T05:10:57.404Z,99637.00
2019-05-13T05:13:57.028Z,99632.00
2019-05-13T05:16:56.243Z,99626.00
2019-05-13T05:19:52.543Z,99626.00
2019-05-13T05:22:32.381Z,99649.00
2019-05-13T05:25:22.848Z,99628.00
2019-05-13T05:28:05.404Z,99633.00
2019-05-13T05:31:06.558Z,99637.00
2019-05-13T05:33:51.525Z,99643.00
2019-05-13T05:36:47.921Z,99640.00
2019-05-13T05:39:26.278Z,99660.00
2019-05-13T05:41:58.374Z,99641.00
2019-05-13T05:44:32.449Z,99645.00
2019-05-13T05:47:04.863Z,99644.00
2019-05-13T05:49:35.852Z,99639.00
2019-05-13T05:52:07.499Z,99641.00
2019-05-13T05:54:42.260Z,99642.00
2019-05-13T05:57:12.130Z,99641.00
2019-05-13T05:59:42.857Z,99637.00
2019-05-13T06:02:12.543Z,99634.00
2019-05-13T06:04:43.342Z,99647.00
2019-05-13T06:07:15.967Z,99631.00
2019-05-13T06:09:45.326Z,99643.00
2019-05-13T06:12:15.422Z,99637.00
2019-05-13T06:14:45.521Z,99635.00
2019-05-13T06:17:15.043Z,99630.00
2019-05-13T06:19:44.791Z,99639.00
2019-05-13T06:22:14.334Z,99634.00
2019-05-13T06:24:43.768Z,99636.00
2019-05-13T06:27:13.215Z,99636.00
2019-05-13T06:29:42.621Z,99629.00
2019-05-13T06:32:21.441Z,99631.00
2019-05-13T06:34:43.587Z,99623.00
2019-05-13T06:37:13.110Z,99629.00
2019-05-13T06:39:42.917Z,99629.00
2019-05-13T06:42:12.318Z,99632.00
2019-05-13T06:44:42.206Z,99645.00
2019-05-13T06:47:11.736Z,99643.00
2019-05-13T06:49:42.867Z,99644.00
2019-05-13T06:52:12.372Z,99650.00
2019-05-13T06:54:42.001Z,99641.00
2019-05-13T06:57:13.607Z,99640.00
2019-05-13T06:59:43.129Z,99638.00
2019-05-13T07:02:12.663Z,99635.00
2019-05-13T07:04:42.058Z,99640.00
2019-05-13T07:07:16.739Z,99637.00
2019-05-13T07:09:43.752Z,99639.00
2019-05-13T07:12:13.544Z,99647.00
2019-05-13T07:14:42.914Z,99647.00
2019-05-13T07:17:12.565Z,99628.00
2019-05-13T07:19:42.032Z,99625.00
2019-05-13T07:22:12.139Z,99649.00
2019-05-13T07:24:41.663Z,99638.00
2019-05-13T07:27:12.277Z,99642.00
2019-05-13T07:29:42.517Z,99645.00
2019-05-13T07:32:12.188Z,99636.00
2019-05-13T07:34:43.987Z,99647.00
2019-05-13T07:37:13.186Z,99662.00
2019-05-13T07:39:42.779Z,99654.00
2019-05-13T07:42:12.515Z,99643.00
2019-05-13T07:44:42.103Z,99652.00
2019-05-13T07:47:11.845Z,99644.00
2019-05-13T07:49:42.244Z,99653.00
2019-05-13T07:52:12.017Z,99637.00
2019-05-13T07:54:42.133Z,99637.00
2019-05-13T07:57:12.284Z,99644.00
2019-05-13T07:59:42.230Z,99639.00
2019-05-13T08:02:12.338Z,99639.00
2019-05-13T08:04:42.242Z,99645.00
2019-05-13T08:07:12.215Z,99653.00
2019-05-13T08:09:42.040Z,99630.00
2019-05-13T08:12:14.312Z,99637.00
2019-05-13T08:14:43.667Z,99640.00
2019-05-13T08:17:13.493Z,99638.00
2019-05-13T08:19:43.288Z,99643.00
2019-05-13T08:22:12.648Z,99644.00
2019-05-13T08:24:42.658Z,99640.00
2019-05-13T08:27:12.311Z,99633.00
2019-05-13T08:29:42.255Z,99645.00
2019-05-13T08:32:11.696Z,99641.00
2019-05-13T08:34:41.844Z,99635.00
2019-05-13T08:37:11.636Z,99641.00
2019-05-13T08:39:41.652Z,99633.00
2019-05-13T08:42:15.925Z,99635.00
2019-05-13T08:44:42.525Z,99632.00
2019-05-13T08:47:12.459Z,99632.00
2019-05-13T08:49:41.947Z,99640.00
2019-05-13T08:52:12.263Z,99619.00
2019-05-13T08:54:42.080Z,99639.00
2019-05-13T08:57:12.022Z,99637.00
2019-05-13T08:59:42.247Z,99638.00
2019-05-13T09:02:12.241Z,99631.00
2019-05-13T09:04:42.348Z,99639.00
2019-05-13T09:07:12.286Z,99646.00
2019-05-13T09:09:42.069Z,99642.00
2019-05-13T09:12:13.197Z,99645.00
2019-05-13T09:14:42.674Z,99640.00
2019-05-13T09:17:12.223Z,99647.00
2019-05-13T09:19:41.681Z,99641.00
2019-05-13T09:22:12.352Z,99636.00
2019-05-13T09:24:42.688Z,99634.00
2019-05-13T09:27:12.602Z,99628.00
2019-05-13T09:29:42.891Z,99644.00
2019-05-13T09:32:12.400Z,99630.00
2019-05-13T09:34:42.343Z,99614.00
2019-05-13T09:37:12.244Z,99629.00
2019-05-13T09:39:41.827Z,99628.00
2019-05-13T09:42:12.726Z,99631.00
2019-05-13T09:44:42.249Z,99621.00
2019-05-13T09:47:12.534Z,99625.00
2019-05-13T09:49:42.328Z,99606.00
2019-05-13T09:52:12.484Z,99605.00
2019-05-13T09:54:42.837Z,99609.00
2019-05-13T09:57:12.650Z,99616.00
2019-05-13T09:59:42.371Z,99625.00
2019-05-13T10:02:12.569Z,99618.00
2019-05-13T10:04:43.733Z,99617.00
2019-05-13T10:07:13.398Z,99627.00
2019-05-13T10:09:43.640Z,99626.00
2019-05-13T10:12:14.408Z,99621.00
2019-05-13T10:14:43.759Z,99628.00
2019-05-13T10:17:13.389Z,99620.00
2019-05-13T10:19:42.796Z,99618.00
2019-05-13T10:22:12.239Z,99611.00
2019-05-13T10:24:42.354Z,99619.00
2019-05-13T10:27:12.616Z,99605.00
2019-05-13T10:29:42.823Z,99618.00
2019-05-13T10:32:12.355Z,99607.00
2019-05-13T10:34:42.917Z,99596.00
2019-05-13T10:37:12.627Z,99596.00
2019-05-13T10:39:42.083Z,99599.00
2019-05-13T10:42:12.229Z,99587.00
2019-05-13T10:44:42.428Z,99590.00
2019-05-13T10:47:12.298Z,99593.00
2019-05-13T10:49:42.514Z,99589.00
2019-05-13T10:52:12.432Z,99604.00
2019-05-13T10:54:42.047Z,99603.00
2019-05-13T10:57:13.618Z,99598.00
2019-05-13T10:59:42.511Z,99596.00
2019-05-13T11:02:13.412Z,99584.00
2019-05-13T11:04:42.935Z,99578.00
2019-05-13T11:07:13.558Z,99578.00
2019-05-13T11:09:42.935Z,99589.00
2019-05-13T11:12:12.729Z,99590.00
2019-05-13T11:14:42.366Z,99599.00
2019-05-13T11:17:12.985Z,99583.00
2019-05-13T11:19:42.772Z,99584.00
2019-05-13T11:22:12.462Z,99564.00
2019-05-13T11:24:43.123Z,99574.00
2019-05-13T11:27:13.152Z,99570.00
2019-05-13T11:29:42.518Z,99565.00
2019-05-13T11:32:13.304Z,99566.00
2019-05-13T11:34:43.111Z,99560.00
2019-05-13T11:37:12.605Z,99561.00
2019-05-13T11:39:42.779Z,99546.00
2019-05-13T11:42:13.571Z,99537.00
2019-05-13T11:44:43.423Z,99553.00
2019-05-13T11:47:12.966Z,99561.00
2019-05-13T11:49:42.788Z,99544.00
2019-05-13T11:52:12.291Z,99534.00
2019-05-13T11:54:42.468Z,99540.00
2019-05-13T11:57:12.698Z,99532.00
2019-05-13T11:59:43.087Z,99552.00
2019-05-13T12:02:13.855Z,99529.00
2019-05-13T12:04:44.282Z,99531.00
2019-05-13T12:07:13.843Z,99533.00
2019-05-13T12:09:43.763Z,99534.00
2019-05-13T12:12:13.910Z,99527.00
2019-05-13T12:15:14.838Z,99531.00
2019-05-13T12:17:14.685Z,99528.00
2019-05-13T12:19:44.067Z,99531.00
2019-05-13T12:22:13.595Z,99519.00
2019-05-13T12:24:42.974Z,99527.00
2019-05-13T12:27:12.451Z,99532.00
2019-05-13T12:29:42.963Z,99520.00
2019-05-13T12:32:13.823Z,99522.00
2019-05-13T12:34:45.793Z,99497.00
2019-05-13T12:37:14.396Z,99509.00
2019-05-13T12:39:44.242Z,99507.00
2019-05-13T12:42:13.677Z,99511.00
2019-05-13T12:45:00.497Z,99516.00
2019-05-13T12:47:14.141Z,99522.00
2019-05-13T12:49:44.160Z,99502.00
2019-05-13T12:52:13.709Z,99500.00
2019-05-13T12:54:44.032Z,99499.00
2019-05-13T12:57:16.238Z,99506.00
2019-05-13T12:59:45.876Z,99502.00
2019-05-13T13:02:15.234Z,99514.00
2019-05-13T13:05:07.757Z,99501.00
2019-05-13T13:07:15.721Z,99501.00
2019-05-13T13:09:45.126Z,99510.00
2019-05-13T13:12:14.853Z,99503.00
2019-05-13T13:14:44.821Z,99504.00
2019-05-13T13:17:14.292Z,99508.00
2019-05-13T13:19:43.672Z,99505.00
2019-05-13T13:22:13.707Z,99504.00
2019-05-13T13:24:50.777Z,99492.00
2019-05-13T13:27:21.045Z,99495.00
2019-05-13T13:29:45.649Z,99497.00
2019-05-13T13:32:14.992Z,99500.00
2019-05-13T13:34:44.566Z,99481.00
2019-05-13T13:37:13.941Z,99486.00
2019-05-13T13:39:43.634Z,99483.00
2019-05-13T13:42:13.317Z,99486.00
2019-05-13T13:44:43.228Z,99481.00
2019-05-13T13:47:14.838Z,99470.00
2019-05-13T13:49:44.093Z,99468.00
2019-05-13T13:52:15.942Z,99471.00
2019-05-13T13:54:44.675Z,99483.00
2019-05-13T13:57:14.144Z,99474.00
2019-05-13T14:00:14.159Z,99460.00
2019-05-13T14:02:14.585Z,99454.00
2019-05-13T14:04:43.986Z,99470.00
2019-05-13T14:07:27.843Z,99451.00
2019-05-13T14:09:44.741Z,99448.00
2019-05-13T14:12:14.188Z,99459.00
2019-05-13T14:14:44.347Z,99451.00
2019-05-13T14:17:13.718Z,99444.00
2019-05-13T14:19:43.140Z,99446.00
2019-05-13T14:22:12.806Z,99454.00
2019-05-13T14:24:42.800Z,99433.00
2019-05-13T14:27:12.398Z,99440.00
2019-05-13T14:29:48.941Z,99422.00
2019-05-13T14:32:13.346Z,99442.00
2019-05-13T14:34:42.730Z,99450.00
2019-05-13T14:37:12.114Z,99450.00
2019-05-13T14:39:41.728Z,99452.00
2019-05-13T14:42:11.900Z,99429.00
2019-05-13T14:44:41.388Z,99436.00
2019-05-13T14:47:12.472Z,99438.00
2019-05-13T14:49:42.529Z,99438.00
2019-05-13T14:52:12.167Z,99436.00
2019-05-13T14:54:42.252Z,99432.00
2019-05-13T14:57:14.889Z,99423.00
2019-05-13T14:59:43.640Z,99422.00
2019-05-13T15:02:13.036Z,99427.00
2019-05-13T15:05:06.356Z,99425.00
2019-05-13T15:07:13.502Z,99424.00
2019-05-13T15:09:42.870Z,99422.00
2019-05-13T15:12:12.268Z,99422.00
2019-05-13T15:14:42.897Z,99417.00
2019-05-13T15:17:12.981Z,99427.00
2019-05-13T15:19:43.147Z,99424.00
2019-05-13T15:22:15.746Z,99414.00
2019-05-13T15:24:43.601Z,99420.00
2019-05-13T15:27:12.981Z,99413.00
2019-05-13T15:29:45.067Z,99436.00
2019-05-13T15:32:14.422Z,99438.00
2019-05-13T15:34:44.008Z,99428.00
2019-05-13T15:37:13.401Z,99418.00
2019-05-13T15:39:42.787Z,99423.00
2019-05-13T15:42:12.191Z,99398.00
2019-05-13T15:44:41.507Z,99420.00
2019-05-13T15:47:22.749Z,99425.00
2019-05-13T15:49:41.995Z,99390.00
2019-05-13T15:52:11.948Z,99415.00
2019-05-13T15:54:41.623Z,99420.00
2019-05-13T15:57:12.063Z,99421.00
2019-05-13T15:59:41.686Z,99404.00
2019-05-13T16:02:11.876Z,99399.00
2019-05-13T16:04:50.028Z,99406.00
2019-05-13T16:07:12.543Z,99409.00
2019-05-13T16:09:42.210Z,99407.00
2019-05-13T16:12:12.289Z,99405.00
2019-05-13T16:14:42.055Z,99404.00
2019-05-13T16:17:12.329Z,99408.00
2019-05-13T16:19:42.331Z,99397.00
2019-05-13T16:22:12.067Z,99396.00
2019-05-13T16:24:41.787Z,99404.00
2019-05-13T16:27:11.961Z,99404.00
2019-05-13T16:29:42.228Z,99399.00
2019-05-13T16:32:12.182Z,99390.00
2019-05-13T16:34:42.506Z,99405.00
2019-05-13T16:37:11.933Z,99407.00
2019-05-13T16:39:41.586Z,99393.00
2019-05-13T16:42:11.883Z,99395.00
2019-05-13T16:44:42.984Z,99390.00
2019-05-13T16:47:12.573Z,99399.00
2019-05-13T16:49:41.961Z,99399.00
2019-05-13T16:52:11.853Z,99396.00
2019-05-13T16:54:42.466Z,99384.00
2019-05-13T16:57:12.519Z,99398.00
2019-05-13T16:59:41.895Z,99400.00
2019-05-13T17:02:12.566Z,99391.00
2019-05-13T17:04:42.317Z,99390.00
2019-05-13T17:07:11.689Z,99401.00
2019-05-13T17:09:41.563Z,99388.00
2019-05-13T17:12:12.874Z,99385.00
2019-05-13T17:14:42.317Z,99387.00
2019-05-13T17:17:12.026Z,99394.00
2019-05-13T17:19:42.241Z,99390.00
2019-05-13T17:22:13.112Z,99394.00
2019-05-13T17:24:42.832Z,99401.00
2019-05-13T17:27:12.330Z,99398.00
2019-05-13T17:29:41.735Z,99396.00
2019-05-13T17:32:11.587Z,99397.00
2019-05-13T17:34:43.651Z,99392.00
2019-05-13T17:37:12.396Z,99392.00
2019-05-13T17:39:41.785Z,99377.00
2019-05-13T17:42:12.260Z,99382.00
2019-05-13T17:44:45.946Z,99389.00
2019-05-13T17:47:13.538Z,99379.00
2019-05-13T17:49:42.915Z,99385.00
2019-05-13T17:52:12.289Z,99393.00
2019-05-13T17:54:42.819Z,99380.00
2019-05-13T17:57:12.543Z,99388.00
2019-05-13T17:59:41.974Z,99373.00
2019-05-13T18:02:11.989Z,99368.00
2019-05-13T18:04:41.704Z,99375.00
2019-05-13T18:07:12.214Z,99381.00
2019-05-13T18:09:42.364Z,99377.00
2019-05-13T18:12:11.944Z,99376.00
2019-05-13T18:14:41.417Z,99373.00
2019-05-13T18:17:12.511Z,99369.00
2019-05-13T18:19:42.331Z,99368.00
2019-05-13T18:22:11.696Z,99374.00
2019-05-13T18:24:41.405Z,99361.00
2019-05-13T18:27:12.291Z,99371.00
2019-05-13T18:29:42.104Z,99372.00
2019-05-13T18:32:12.309Z,99362.00
2019-05-13T18:34:42.004Z,99369.00
2019-05-13T18:37:11.995Z,99347.00
2019-05-13T18:39:41.761Z,99365.00
2019-05-13T18:42:11.739Z,99366.00
2019-05-13T18:44:42.148Z,99366.00
2019-05-13T18:47:12.185Z,99371.00
2019-05-13T18:49:42.463Z,99373.00
2019-05-13T18:52:12.068Z,99367.00
2019-05-13T18:54:42.155Z,99375.00
2019-05-13T18:57:12.209Z,99388.00
2019-05-13T18:59:41.793Z,99381.00
2019-05-13T19:02:12.201Z,99370.00
2019-05-13T19:04:42.321Z,99380.00
2019-05-13T19:07:11.760Z,99371.00
2019-05-13T19:09:41.733Z,99371.00
2019-05-13T19:12:11.747Z,99370.00
2019-05-13T19:14:41.356Z,99384.00
2019-05-13T19:17:12.406Z,99370.00
2019-05-13T19:19:42.280Z,99379.00
2019-05-13T19:22:12.277Z,99387.00
2019-05-13T19:24:41.809Z,99385.00
2019-05-13T19:27:12.720Z,99388.00
2019-05-13T19:29:42.619Z,99384.00
2019-05-13T19:32:12.521Z,99378.00
2019-05-13T19:34:42.481Z,99390.00
2019-05-13T19:37:12.115Z,99391.00
2019-05-13T19:39:41.539Z,99377.00
2019-05-13T19:42:11.598Z,99376.00
2019-05-13T19:44:42.087Z,99379.00
2019-05-13T19:47:12.380Z,99386.00
2019-05-13T19:49:46.295Z,99387.00
2019-05-13T19:52:13.243Z,99381.00
2019-05-13T19:54:42.621Z,99385.00
2019-05-13T19:57:12.168Z,99395.00
2019-05-13T19:59:42.693Z,99386.00
2019-05-13T20:02:12.494Z,99383.00
2019-05-13T20:04:41.982Z,99399.00
2019-05-13T20:07:11.925Z,99380.00
2019-05-13T20:09:42.634Z,99380.00
2019-05-13T20:12:15.356Z,99383.00
2019-05-13T20:14:43.398Z,99379.00
2019-05-13T20:17:12.767Z,99380.00
2019-05-13T20:19:50.096Z,99383.00
2019-05-13T20:22:13.285Z,99381.00
2019-05-13T20:24:42.655Z,99382.00
2019-05-13T20:27:12.125Z,99365.00
2019-05-13T20:29:42.304Z,99371.00
2019-05-13T20:32:11.818Z,99376.00
2019-05-13T20:34:41.303Z,99374.00
2019-05-13T20:37:12.387Z,99374.00
2019-05-13T20:39:42.566Z,99385.00
2019-05-13T20:42:12.432Z,99383.00
2019-05-13T20:44:42.210Z,99395.00
2019-05-13T20:47:11.593Z,99389.00
2019-05-13T20:49:41.746Z,99397.00
2019-05-13T20:52:15.051Z,99399.00
2019-05-13T20:54:42.447Z,99402.00
2019-05-13T20:57:11.884Z,99401.00
2019-05-13T20:59:41.519Z,99395.00
2019-05-13T21:02:12.378Z,99399.00
2019-05-13T21:04:42.015Z,99395.00
2019-05-13T21:07:11.391Z,99408.00
2019-05-13T21:09:42.313Z,99402.00
2019-05-13T21:12:12.176Z,99397.00
2019-05-13T21:14:41.829Z,99405.00
2019-05-13T21:17:12.265Z,99397.00
2019-05-13T21:19:42.922Z,99384.00
2019-05-13T21:22:12.533Z,99394.00
2019-05-13T21:24:41.892Z,99404.00
2019-05-13T21:27:11.839Z,99406.00
2019-05-13T21:29:41.640Z,99404.00
2019-05-13T21:32:11.924Z,99394.00
2019-05-13T21:34:41.371Z,99406.00
2019-05-13T21:37:11.532Z,99397.00
2019-05-13T21:39:41.342Z,99396.00
2019-05-13T21:42:11.566Z,99394.00
2019-05-13T21:44:42.017Z,99403.00
2019-05-13T21:47:11.560Z,99401.00
2019-05-13T21:49:42.331Z,99392.00
2019-05-13T21:52:11.862Z,99401.00
2019-05-13T21:54:42.175Z,99401.00
2019-05-13T21:57:11.690Z,99406.00
2019-05-13T21:59:41.502Z,99400.00
2019-05-13T22:02:11.242Z,99398.00
2019-05-13T22:04:41.277Z,99407.00
2019-05-13T22:07:12.178Z,99395.00
2019-05-13T22:09:42.320Z,99389.00
2019-05-13T22:12:11.915Z,99394.00
2019-05-13T22:14:41.386Z,99393.00
2019-05-13T22:17:12.361Z,99390.00
2019-05-13T22:19:42.273Z,99387.00
2019-05-13T22:22:11.765Z,99400.00
2019-05-13T22:24:41.840Z,99389.00
2019-05-13T22:27:13.251Z,99391.00
2019-05-13T22:29:42.608Z,99398.00
2019-05-13T22:32:11.974Z,99389.00
2019-05-13T22:34:42.038Z,99394.00
2019-05-13T22:37:11.837Z,99390.00
2019-05-13T22:39:42.063Z,99390.00
2019-05-13T22:42:12.575Z,99384.00
2019-05-13T22:44:42.172Z,99381.00
2019-05-13T22:47:13.430Z,99380.00
2019-05-13T22:49:42.652Z,99384.00
2019-05-13T22:52:12.025Z,99386.00
2019-05-13T22:54:41.394Z,99384.00
2019-05-13T22:57:11.983Z,99392.00
2019-05-13T22:59:41.752Z,99389.00
2019-05-13T23:02:11.072Z,99372.00
2019-05-13T23:04:41.881Z,99381.00
2019-05-13T23:07:11.756Z,99380.00
2019-05-13T23:09:41.814Z,99369.00
2019-05-13T23:12:12.298Z,99374.00
2019-05-13T23:14:41.885Z,99371.00
2019-05-13T23:17:12.452Z,99377.00
2019-05-13T23:19:42.120Z,99382.00
2019-05-13T23:22:12.102Z,99364.00
2019-05-13T23:24:41.836Z,99367.00
2019-05-13T23:27:11.353Z,99368.00
2019-05-13T23:29:41.358Z,99360.00
2019-05-13T23:32:11.979Z,99362.00
2019-05-13T23:34:42.290Z,99359.00
2019-05-13T23:37:12.370Z,99366.00
2019-05-13T23:39:41.910Z,99374.00
2019-05-13T23:42:12.352Z,99349.00
2019-05-13T23:44:41.841Z,99344.00
2019-05-13T23:47:11.661Z,99341.00
2019-05-13T23:49:42.202Z,99349.00
2019-05-13T23:52:11.982Z,99331.00
2019-05-13T23:54:42.397Z,99337.00
2019-05-13T23:57:12.567Z,99330.00
2019-05-13T23:59:42.259Z,99332.00
